createdAt,value
2016-05-27T00:00:58.092Z,22.39
2016-05-27T00:01:58.095Z,22.4
2016-05-27T00:02:58.098Z,22.37
2016-05-27T00:03:58.132Z,22.42
2016-05-27T00:04:58.103Z,22.4
2016-05-27T00:05:58.137Z,22.37
2016-05-27T00:06:57.969Z,22.39
2016-05-27T00:07:58.142Z,22.37
2016-05-27T00:08:57.974Z,22.36
2016-05-27T00:09:58.133Z,22.39
2016-05-27T00:10:58.150Z,22.33
2016-05-27T00:11:58.138Z,22.37
2016-05-27T00:12:57.999Z,22.36
2016-05-27T00:13:58.159Z,22.35
2016-05-27T00:14:58.161Z,22.4
2016-05-27T00:15:58.163Z,22.42
2016-05-27T00:16:58.166Z,22.36
2016-05-27T00:17:58.029Z,22.4
2016-05-27T00:18:58.422Z,22.4
2016-05-27T00:19:58.191Z,22.4
2016-05-27T00:20:58.193Z,22.37
2016-05-27T00:21:58.195Z,22.42
2016-05-27T00:22:58.198Z,22.35
2016-05-27T00:23:58.202Z,22.33
2016-05-27T00:24:58.220Z,22.4
2016-05-27T00:25:58.066Z,22.28
2016-05-27T00:26:58.225Z,22.28
2016-05-27T00:27:58.228Z,22.28
2016-05-27T00:28:58.230Z,22.39
2016-05-27T00:29:58.233Z,22.37
2016-05-27T00:30:58.251Z,22.39
2016-05-27T00:31:58.254Z,22.3
2016-05-27T00:32:58.256Z,22.33
2016-05-27T00:33:58.947Z,22.37
2016-05-27T00:34:58.261Z,22.27
2016-05-27T00:35:58.108Z,22.3
2016-05-27T00:36:58.267Z,22.27
2016-05-27T00:37:58.130Z,22.28
2016-05-27T00:38:58.272Z,22.28
2016-05-27T00:39:58.291Z,22.3
2016-05-27T00:40:58.294Z,22.31
2016-05-27T00:41:58.296Z,22.27
2016-05-27T00:42:58.158Z,22.27
2016-05-27T00:43:58.161Z,22.31
2016-05-27T00:44:58.305Z,22.31
2016-05-27T00:45:58.307Z,22.27
2016-05-27T00:46:58.326Z,22.3
2016-05-27T00:47:58.171Z,22.27
2016-05-27T00:48:58.253Z,22.25
2016-05-27T00:49:58.334Z,22.31
2016-05-27T00:50:58.352Z,22.3
2016-05-27T00:51:58.339Z,22.31
2016-05-27T00:52:58.357Z,22.33
2016-05-27T00:53:58.360Z,22.3
2016-05-27T00:54:58.206Z,22.28
2016-05-27T00:55:58.381Z,22.31
2016-05-27T00:56:58.228Z,22.31
2016-05-27T00:57:58.386Z,22.37
2016-05-27T00:58:58.390Z,22.33
2016-05-27T00:59:58.392Z,22.31
2016-05-27T01:00:58.409Z,22.27
2016-05-27T01:01:58.413Z,22.27
2016-05-27T01:02:58.400Z,22.28
2016-05-27T01:03:58.653Z,22.27
2016-05-27T01:04:58.418Z,22.24
2016-05-27T01:05:58.420Z,22.31
2016-05-27T01:06:58.439Z,22.33
2016-05-27T01:07:58.426Z,22.27
2016-05-27T01:08:58.444Z,22.3
2016-05-27T01:09:58.431Z,22.25
2016-05-27T01:10:58.433Z,22.28
2016-05-27T01:11:58.468Z,22.35
2016-05-27T01:12:58.455Z,22.27
2016-05-27T01:13:58.302Z,22.25
2016-05-27T01:14:58.320Z,22.28
2016-05-27T01:15:58.463Z,22.33
2016-05-27T01:16:58.482Z,22.33
2016-05-27T01:17:58.469Z,22.28
2016-05-27T01:18:58.347Z,22.31
2016-05-27T01:19:58.333Z,22.27
2016-05-27T01:20:58.493Z,22.33
2016-05-27T01:21:58.495Z,22.33
2016-05-27T01:22:58.499Z,22.24
2016-05-27T01:23:58.515Z,22.25
2016-05-27T01:24:58.534Z,22.22
2016-05-27T01:25:58.521Z,22.27
2016-05-27T01:26:58.524Z,22.27
2016-05-27T01:27:58.527Z,22.25
2016-05-27T01:28:58.530Z,22.27
2016-05-27T01:29:58.564Z,22.3
2016-05-27T01:30:58.567Z,22.21
2016-05-27T01:31:58.553Z,22.22
2016-05-27T01:32:58.556Z,22.25
2016-05-27T01:33:58.465Z,22.27
2016-05-27T01:34:58.578Z,22.28
2016-05-27T01:35:58.564Z,22.25
2016-05-27T01:36:58.425Z,22.21
2016-05-27T01:37:58.429Z,22.22
2016-05-27T01:38:58.447Z,22.35
2016-05-27T01:39:58.591Z,22.24
2016-05-27T01:40:58.593Z,22.31
2016-05-27T01:41:58.596Z,22.22
2016-05-27T01:42:58.302Z,22.22
2016-05-27T01:43:58.602Z,22.27
2016-05-27T01:44:58.619Z,22.27
2016-05-27T01:45:58.622Z,22.22
2016-05-27T01:46:58.625Z,22.28
2016-05-27T01:47:58.643Z,22.25
2016-05-27T01:48:58.333Z,22.31
2016-05-27T01:49:58.635Z,22.24
2016-05-27T01:50:58.673Z,22.27
2016-05-27T01:51:58.539Z,22.22
2016-05-27T01:52:58.717Z,22.22
2016-05-27T01:53:58.754Z,22.22
2016-05-27T01:54:58.759Z,22.24
2016-05-27T01:55:58.769Z,22.17
2016-05-27T01:56:58.793Z,22.22
2016-05-27T01:57:58.835Z,22.22
2016-05-27T01:58:58.813Z,22.22
2016-05-27T01:59:58.853Z,22.24
2016-05-27T02:00:58.843Z,22.31
2016-05-27T02:01:58.833Z,22.28
2016-05-27T02:02:58.853Z,22.31
2016-05-27T02:03:59.187Z,22.3
2016-05-27T02:04:58.864Z,22.3
2016-05-27T02:05:58.883Z,22.24
2016-05-27T02:06:58.871Z,22.28
2016-05-27T02:07:58.875Z,22.33
2016-05-27T02:08:58.895Z,22.27
2016-05-27T02:09:58.897Z,22.27
2016-05-27T02:10:58.901Z,22.3
2016-05-27T02:11:58.918Z,22.22
2016-05-27T02:12:58.922Z,22.25
2016-05-27T02:13:58.925Z,22.28
2016-05-27T02:14:58.927Z,22.27
2016-05-27T02:15:58.930Z,22.25
2016-05-27T02:16:58.777Z,22.33
2016-05-27T02:17:58.780Z,22.33
2016-05-27T02:18:59.252Z,22.31
2016-05-27T02:19:58.942Z,22.4
2016-05-27T02:20:58.960Z,22.31
2016-05-27T02:21:58.962Z,22.4
2016-05-27T02:22:58.965Z,22.35
2016-05-27T02:23:58.968Z,22.25
2016-05-27T02:24:58.971Z,22.33
2016-05-27T02:25:58.832Z,22.28
2016-05-27T02:26:58.992Z,22.28
2016-05-27T02:27:58.994Z,22.39
2016-05-27T02:28:58.997Z,22.27
2016-05-27T02:29:59.000Z,22.3
2016-05-27T02:30:59.003Z,22.39
2016-05-27T02:31:59.020Z,22.33
2016-05-27T02:32:59.008Z,22.33
2016-05-27T02:33:59.510Z,22.42
2016-05-27T02:34:59.029Z,22.33
2016-05-27T02:35:59.047Z,22.25
2016-05-27T02:36:59.034Z,22.37
2016-05-27T02:37:59.036Z,22.42
2016-05-27T02:38:59.040Z,22.27
2016-05-27T02:39:58.902Z,22.42
2016-05-27T02:40:59.060Z,22.45
2016-05-27T02:41:59.078Z,22.28
2016-05-27T02:42:58.910Z,22.4
2016-05-27T02:43:59.069Z,22.4
2016-05-27T02:44:59.103Z,22.36
2016-05-27T02:45:59.074Z,22.4
2016-05-27T02:46:59.091Z,22.39
2016-05-27T02:47:58.938Z,22.3
2016-05-27T02:48:58.941Z,22.28
2016-05-27T02:49:59.100Z,22.27
2016-05-27T02:50:59.103Z,22.31
2016-05-27T02:51:58.965Z,22.35
2016-05-27T02:52:59.124Z,22.31
2016-05-27T02:53:59.127Z,22.31
2016-05-27T02:54:58.973Z,22.28
2016-05-27T02:55:59.132Z,22.27
2016-05-27T02:56:59.151Z,22.27
2016-05-27T02:57:59.153Z,22.25
2016-05-27T02:58:59.140Z,22.28
2016-05-27T02:59:59.174Z,22.24
2016-05-27T03:00:59.146Z,22.25
2016-05-27T03:01:59.165Z,22.24
2016-05-27T03:02:59.182Z,22.25
2016-05-27T03:03:59.310Z,22.27
2016-05-27T03:04:59.187Z,22.21
2016-05-27T03:05:59.034Z,22.27
2016-05-27T03:06:59.193Z,22.3
2016-05-27T03:07:59.196Z,22.22
2016-05-27T03:08:59.198Z,22.2
2016-05-27T03:09:59.201Z,22.2
2016-05-27T03:10:59.048Z,22.22
2016-05-27T03:11:59.206Z,22.22
2016-05-27T03:12:59.225Z,22.2
2016-05-27T03:13:59.071Z,22.2
2016-05-27T03:14:59.231Z,22.22
2016-05-27T03:15:59.077Z,22.24
2016-05-27T03:16:59.236Z,22.2
2016-05-27T03:17:59.254Z,22.15
2016-05-27T03:18:59.257Z,22.21
2016-05-27T03:19:59.260Z,22.12
2016-05-27T03:20:59.263Z,22.2
2016-05-27T03:21:59.265Z,22.21
2016-05-27T03:22:59.299Z,22.22
2016-05-27T03:23:59.114Z,22.22
2016-05-27T03:24:59.288Z,22.21
2016-05-27T03:25:59.291Z,22.2
2016-05-27T03:26:59.293Z,22.18
2016-05-27T03:27:59.296Z,22.17
2016-05-27T03:28:59.315Z,22.18
2016-05-27T03:29:59.302Z,22.17
2016-05-27T03:30:59.304Z,22.18
2016-05-27T03:31:59.323Z,22.18
2016-05-27T03:32:59.326Z,22.18
2016-05-27T03:33:59.453Z,22.1
2016-05-27T03:34:59.331Z,22.15
2016-05-27T03:35:59.334Z,22.12
2016-05-27T03:36:59.336Z,22.14
2016-05-27T03:37:59.354Z,22.14
2016-05-27T03:38:59.357Z,22.14
2016-05-27T03:39:59.359Z,22.17
2016-05-27T03:40:59.206Z,22.12
2016-05-27T03:41:59.365Z,22.15
2016-05-27T03:42:59.212Z,22.15
2016-05-27T03:43:59.214Z,22.12
2016-05-27T03:44:59.373Z,22.15
2016-05-27T03:45:59.220Z,22.09
2016-05-27T03:46:59.378Z,22.14
2016-05-27T03:47:59.397Z,22.12
2016-05-27T03:48:59.650Z,22.12
2016-05-27T03:49:59.402Z,22.17
2016-05-27T03:50:59.405Z,22.14
2016-05-27T03:51:59.408Z,22.2
2016-05-27T03:52:59.254Z,22.15
2016-05-27T03:53:59.272Z,22.2
2016-05-27T03:54:59.432Z,22.09
2016-05-27T03:55:59.449Z,22.1
2016-05-27T03:56:59.280Z,22.12
2016-05-27T03:57:59.440Z,22.06
2016-05-27T03:58:59.301Z,22.1
2016-05-27T03:59:59.460Z,22.14
2016-05-27T04:00:59.463Z,22.12
2016-05-27T04:01:59.465Z,22.12
2016-05-27T04:02:59.468Z,22.1
2016-05-27T04:03:59.487Z,22.12
2016-05-27T04:04:59.474Z,22.09
2016-05-27T04:05:59.476Z,22.14
2016-05-27T04:06:59.495Z,22.06
2016-05-27T04:07:59.514Z,22.17
2016-05-27T04:08:59.500Z,22.06
2016-05-27T04:09:59.519Z,22.03
2016-05-27T04:10:59.506Z,22.1
2016-05-27T04:11:59.509Z,22.07
2016-05-27T04:12:59.511Z,22.06
2016-05-27T04:13:59.514Z,22.1
2016-05-27T04:14:59.532Z,22.05
2016-05-27T04:15:59.535Z,22.06
2016-05-27T04:16:59.381Z,22.12
2016-05-27T04:17:59.541Z,22.02
2016-05-27T04:18:59.558Z,22.07
2016-05-27T04:19:59.389Z,22.05
2016-05-27T04:20:59.549Z,22.12
2016-05-27T04:21:59.566Z,22.06
2016-05-27T04:22:59.569Z,22.02
2016-05-27T04:23:59.572Z,22.06
2016-05-27T04:24:59.574Z,22.09
2016-05-27T04:25:59.578Z,22.03
2016-05-27T04:26:59.580Z,22.09
2016-05-27T04:27:59.442Z,22.12
2016-05-27T04:28:59.585Z,22.1
2016-05-27T04:29:59.448Z,22.03
2016-05-27T04:30:59.606Z,22.05
2016-05-27T04:31:59.609Z,22.09
2016-05-27T04:32:59.627Z,22.09
2016-05-27T04:33:59.942Z,22.12
2016-05-27T04:34:59.632Z,22.05
2016-05-27T04:35:59.620Z,22.03
2016-05-27T04:36:59.637Z,22.02
2016-05-27T04:37:59.625Z,22.07
2016-05-27T04:38:59.487Z,22.05
2016-05-27T04:39:59.646Z,22
2016-05-27T04:40:59.664Z,22.09
2016-05-27T04:41:59.667Z,22.1
2016-05-27T04:42:59.670Z,22.03
2016-05-27T04:43:59.673Z,22.02
2016-05-27T04:44:59.519Z,22.1
2016-05-27T04:45:59.678Z,22.03
2016-05-27T04:46:59.681Z,22.06
2016-05-27T04:47:59.683Z,22.02
2016-05-27T04:48:59.592Z,22.06
2016-05-27T04:49:59.547Z,22.06
2016-05-27T04:50:59.707Z,22.1
2016-05-27T04:51:59.710Z,22.12
2016-05-27T04:52:59.728Z,22.05
2016-05-27T04:53:59.746Z,22.09
2016-05-27T04:54:59.718Z,22.06
2016-05-27T04:55:59.721Z,22.05
2016-05-27T04:56:59.738Z,22.02
2016-05-27T04:57:59.741Z,22.1
2016-05-27T04:58:59.744Z,22.05
2016-05-27T04:59:59.591Z,22.09
2016-05-27T05:00:59.765Z,22.07
2016-05-27T05:01:59.612Z,22.1
2016-05-27T05:02:59.786Z,22.14
2016-05-27T05:03:59.617Z,22.07
2016-05-27T05:04:59.776Z,22.02
2016-05-27T05:05:59.778Z,22.05
2016-05-27T05:06:59.781Z,22.03
2016-05-27T05:07:59.784Z,22.06
2016-05-27T05:08:59.803Z,22.09
2016-05-27T05:09:59.633Z,22.05
2016-05-27T05:10:59.808Z,22.07
2016-05-27T05:11:59.654Z,22.05
2016-05-27T05:12:59.814Z,22.03
2016-05-27T05:13:59.817Z,22.12
2016-05-27T05:14:59.819Z,22.05
2016-05-27T05:15:59.822Z,22.09
2016-05-27T05:16:59.824Z,22.06
2016-05-27T05:17:59.842Z,22.06
2016-05-27T05:19:00.423Z,22.02
2016-05-27T05:19:59.691Z,22.12
2016-05-27T05:20:59.850Z,22.1
2016-05-27T05:21:59.868Z,22.09
2016-05-27T05:22:59.871Z,22.07
2016-05-27T05:23:59.874Z,22.12
2016-05-27T05:24:59.877Z,22.1
2016-05-27T05:25:59.879Z,22.06
2016-05-27T05:26:59.897Z,22.06
2016-05-27T05:27:59.885Z,22.05
2016-05-27T05:28:59.747Z,22.07
2016-05-27T05:29:59.906Z,22.03
2016-05-27T05:30:59.751Z,22.02
2016-05-27T05:31:59.911Z,22.05
2016-05-27T05:32:59.914Z,22.05
2016-05-27T05:33:59.776Z,22.02
2016-05-27T05:34:59.935Z,22.1
2016-05-27T05:35:59.938Z,22.05
2016-05-27T05:36:59.940Z,22.06
2016-05-27T05:37:59.943Z,22.07
2016-05-27T05:39:00.149Z,22.05
2016-05-27T05:39:59.948Z,22.1
2016-05-27T05:40:59.810Z,22.06
2016-05-27T05:41:59.969Z,22.1
2016-05-27T05:42:59.973Z,22.09
2016-05-27T05:43:59.975Z,22.06
2016-05-27T05:44:59.992Z,22.03
2016-05-27T05:45:59.823Z,22.03
2016-05-27T05:46:59.826Z,22.07
2016-05-27T05:48:00.000Z,22.05
2016-05-27T05:49:00.410Z,22.06
2016-05-27T05:50:00.006Z,22.06
2016-05-27T05:50:59.853Z,22.03
2016-05-27T05:52:00.011Z,22.06
2016-05-27T05:52:59.874Z,22.09
2016-05-27T05:54:00.016Z,22.1
2016-05-27T05:54:59.880Z,22.1
2016-05-27T05:56:00.038Z,22.09
2016-05-27T05:57:00.041Z,22.07
2016-05-27T05:58:00.059Z,22.05
2016-05-27T05:59:00.046Z,22.1
2016-05-27T06:00:00.049Z,22.09
2016-05-27T06:01:00.068Z,22.05
2016-05-27T06:01:59.930Z,22.06
2016-05-27T06:03:00.073Z,22
2016-05-27T06:04:00.076Z,22.1
2016-05-27T06:04:59.921Z,22.05
2016-05-27T06:06:00.081Z,22.05
2016-05-27T06:07:00.396Z,22.03
2016-05-27T06:08:00.102Z,22.1
2016-05-27T06:09:00.104Z,22.09
2016-05-27T06:10:00.107Z,22.12
2016-05-27T06:11:00.126Z,22.03
2016-05-27T06:12:03.925Z,22.14
2016-05-27T06:13:00.114Z,22.06
2016-05-27T06:14:00.118Z,22.1
2016-05-27T06:15:00.136Z,22.09
2016-05-27T06:15:59.983Z,22.09
2016-05-27T06:17:00.672Z,22.09
2016-05-27T06:18:00.160Z,22.06
2016-05-27T06:19:00.178Z,22.09
2016-05-27T06:20:00.149Z,22.1
2016-05-27T06:21:00.168Z,22.06
2016-05-27T06:22:02.358Z,22.05
2016-05-27T06:23:00.173Z,22.05
2016-05-27T06:24:00.175Z,22.07
2016-05-27T06:25:00.194Z,22.12
2016-05-27T06:26:00.041Z,22.14
2016-05-27T06:27:00.199Z,22.12
2016-05-27T06:28:00.186Z,22.17
2016-05-27T06:29:00.205Z,22.18
2016-05-27T06:30:00.208Z,22.21
2016-05-27T06:31:00.054Z,22.15
2016-05-27T06:32:00.229Z,22.24
2016-05-27T06:33:00.216Z,22.2
2016-05-27T06:34:00.843Z,22.21
2016-05-27T06:35:00.237Z,22.21
2016-05-27T06:36:00.240Z,22.17
2016-05-27T06:37:00.242Z,22.2
2016-05-27T06:38:00.245Z,22.21
2016-05-27T06:39:00.248Z,22.24
2016-05-27T06:40:00.109Z,22.17
2016-05-27T06:41:00.269Z,22.21
2016-05-27T06:42:00.271Z,22.21
2016-05-27T06:43:00.289Z,22.22
2016-05-27T06:44:00.121Z,22.2
2016-05-27T06:45:00.295Z,22.2
2016-05-27T06:46:00.281Z,22.22
2016-05-27T06:47:00.300Z,22.25
2016-05-27T06:48:00.303Z,22.14
2016-05-27T06:49:00.165Z,22.2
2016-05-27T06:50:00.308Z,22.15
2016-05-27T06:51:00.311Z,22.2
2016-05-27T06:52:00.330Z,22.17
2016-05-27T06:53:00.191Z,22.21
2016-05-27T06:54:00.335Z,22.22
2016-05-27T06:55:00.338Z,22.24
2016-05-27T06:56:00.340Z,22.24
2016-05-27T06:57:00.359Z,22.18
2016-05-27T06:58:00.346Z,22.22
2016-05-27T06:59:00.192Z,22.21
2016-05-27T07:00:00.366Z,22.18
2016-05-27T07:01:00.368Z,22.24
2016-05-27T07:02:00.372Z,22.18
2016-05-27T07:03:00.406Z,22.2
2016-05-27T07:04:00.471Z,22.2
2016-05-27T07:05:00.395Z,22.2
2016-05-27T07:06:00.399Z,22.2
2016-05-27T07:07:00.416Z,22.21
2016-05-27T07:08:00.418Z,22.14
2016-05-27T07:09:00.407Z,22.2
2016-05-27T07:10:00.409Z,22.21
2016-05-27T07:11:00.412Z,22.15
2016-05-27T07:12:00.429Z,22.18
2016-05-27T07:13:00.432Z,22.25
2016-05-27T07:14:00.435Z,22.15
2016-05-27T07:15:00.453Z,22.18
2016-05-27T07:16:00.456Z,22.21
2016-05-27T07:17:00.475Z,22.2
2016-05-27T07:18:00.461Z,22.22
2016-05-27T07:19:00.934Z,22.22
2016-05-27T07:20:00.483Z,22.2
2016-05-27T07:21:00.470Z,22.24
2016-05-27T07:22:00.316Z,22.14
2016-05-27T07:23:00.476Z,22.22
2016-05-27T07:24:00.494Z,22.24
2016-05-27T07:25:00.496Z,22.22
2016-05-27T07:26:00.499Z,22.21
2016-05-27T07:27:00.502Z,22.18
2016-05-27T07:28:00.348Z,22.27
2016-05-27T07:29:00.507Z,22.22
2016-05-27T07:30:00.510Z,22.22
2016-05-27T07:31:00.544Z,22.21
2016-05-27T07:32:00.531Z,22.22
2016-05-27T07:33:14.629Z,22.27
2016-05-27T07:34:00.645Z,22.27
2016-05-27T07:35:00.399Z,22.22
2016-05-27T07:36:00.541Z,22.18
2016-05-27T07:37:00.388Z,22.27
2016-05-27T07:38:00.563Z,22.18
2016-05-27T07:39:00.424Z,22.3
2016-05-27T07:40:00.567Z,22.25
2016-05-27T07:41:00.571Z,22.2
2016-05-27T07:42:00.417Z,22.25
2016-05-27T07:43:00.592Z,22.27
2016-05-27T07:44:00.594Z,22.31
2016-05-27T07:45:00.269Z,22.28
2016-05-27T07:46:00.614Z,22.21
2016-05-27T07:47:00.446Z,22.27
2016-05-27T07:48:00.606Z,22.24
2016-05-27T07:49:00.795Z,22.24
2016-05-27T07:50:00.485Z,22.22
2016-05-27T07:51:00.660Z,22.25
2016-05-27T07:52:00.631Z,22.25
2016-05-27T07:53:00.633Z,22.24
2016-05-27T07:54:00.636Z,22.25
2016-05-27T07:55:00.483Z,22.24
2016-05-27T07:56:00.657Z,22.25
2016-05-27T07:57:00.644Z,22.25
2016-05-27T07:58:00.647Z,22.28
2016-05-27T07:59:00.666Z,22.28
2016-05-27T08:00:00.668Z,22.25
2016-05-27T08:01:00.672Z,22.22
2016-05-27T08:02:00.674Z,22.25
2016-05-27T08:03:00.676Z,22.22
2016-05-27T08:04:00.648Z,22.25
2016-05-27T08:05:00.713Z,22.25
2016-05-27T08:06:00.388Z,22.25
2016-05-27T08:07:00.687Z,22.3
2016-05-27T08:08:00.705Z,22.25
2016-05-27T08:09:00.707Z,22.27
2016-05-27T08:10:00.727Z,22.27
2016-05-27T08:11:00.713Z,22.25
2016-05-27T08:12:00.732Z,22.28
2016-05-27T08:13:00.718Z,22.3
2016-05-27T08:14:00.582Z,22.31
2016-05-27T08:15:00.740Z,22.3
2016-05-27T08:16:00.743Z,22.28
2016-05-27T08:17:00.745Z,22.27
2016-05-27T08:18:00.764Z,22.27
2016-05-27T08:19:00.610Z,22.28
2016-05-27T08:20:01.175Z,22.37
2016-05-27T08:21:00.787Z,22.3
2016-05-27T08:22:00.806Z,22.27
2016-05-27T08:23:00.636Z,22.27
2016-05-27T08:24:00.640Z,22.33
2016-05-27T08:25:00.814Z,22.25
2016-05-27T08:26:00.800Z,22.4
2016-05-27T08:27:00.803Z,22.28
2016-05-27T08:28:00.806Z,22.33
2016-05-27T08:29:00.809Z,22.28
2016-05-27T08:30:00.827Z,22.37
2016-05-27T08:31:00.674Z,22.24
2016-05-27T08:32:00.849Z,22.35
2016-05-27T08:33:00.679Z,22.28
2016-05-27T08:34:00.885Z,22.27
2016-05-27T08:35:00.888Z,22.28
2016-05-27T08:36:00.860Z,22.28
2016-05-27T08:37:00.705Z,22.31
2016-05-27T08:38:00.865Z,22.25
2016-05-27T08:39:00.867Z,22.25
2016-05-27T08:40:00.885Z,22.33
2016-05-27T08:41:00.888Z,22.33
2016-05-27T08:42:00.891Z,22.4
2016-05-27T08:43:00.893Z,22.39
2016-05-27T08:44:00.912Z,22.3
2016-05-27T08:45:00.899Z,22.3
2016-05-27T08:46:00.917Z,22.31
2016-05-27T08:47:00.764Z,22.3
2016-05-27T08:48:00.923Z,22.3
2016-05-27T08:49:00.940Z,22.31
2016-05-27T08:50:00.943Z,22.39
2016-05-27T08:51:00.931Z,22.33
2016-05-27T08:52:00.934Z,22.31
2016-05-27T08:53:00.952Z,22.37
2016-05-27T08:54:00.954Z,22.37
2016-05-27T08:55:00.957Z,22.33
2016-05-27T08:56:00.959Z,22.3
2016-05-27T08:57:00.806Z,22.42
2016-05-27T08:58:00.981Z,22.43
2016-05-27T08:59:00.983Z,22.39
2016-05-27T09:00:00.689Z,22.37
2016-05-27T09:01:01.004Z,22.4
2016-05-27T09:02:01.008Z,22.31
2016-05-27T09:03:00.853Z,22.37
2016-05-27T09:04:00.731Z,22.4
2016-05-27T09:05:01.219Z,22.31
2016-05-27T09:06:01.018Z,22.39
2016-05-27T09:07:00.864Z,22.37
2016-05-27T09:08:01.039Z,22.4
2016-05-27T09:09:01.041Z,22.36
2016-05-27T09:10:01.044Z,22.37
2016-05-27T09:11:01.063Z,22.4
2016-05-27T09:12:01.049Z,22.35
2016-05-27T09:13:01.052Z,22.39
2016-05-27T09:14:01.054Z,22.4
2016-05-27T09:15:01.074Z,22.4
2016-05-27T09:16:00.920Z,22.4
2016-05-27T09:17:00.922Z,22.36
2016-05-27T09:18:01.097Z,22.47
2016-05-27T09:19:01.179Z,22.4
2016-05-27T09:20:01.837Z,22.4
2016-05-27T09:21:01.089Z,22.45
2016-05-27T09:22:01.123Z,22.46
2016-05-27T09:23:00.953Z,22.4
2016-05-27T09:24:01.129Z,22.39
2016-05-27T09:25:00.976Z,22.42
2016-05-27T09:26:01.134Z,22.36
2016-05-27T09:27:01.137Z,22.37
2016-05-27T09:28:01.139Z,22.43
2016-05-27T09:29:01.142Z,22.37
2016-05-27T09:30:01.145Z,22.4
2016-05-27T09:31:01.163Z,22.49
2016-05-27T09:32:01.181Z,22.52
2016-05-27T09:33:01.169Z,22.43
2016-05-27T09:34:01.171Z,22.45
2016-05-27T09:35:01.346Z,22.39
2016-05-27T09:36:01.036Z,22.52
2016-05-27T09:37:01.195Z,22.45
2016-05-27T09:38:01.197Z,22.46
2016-05-27T09:39:01.044Z,22.46
2016-05-27T09:40:01.063Z,22.52
2016-05-27T09:41:01.065Z,22.54
2016-05-27T09:42:01.068Z,22.45
2016-05-27T09:43:01.227Z,22.45
2016-05-27T09:44:01.229Z,22.45
2016-05-27T09:45:01.232Z,22.47
2016-05-27T09:46:01.235Z,22.52
2016-05-27T09:47:01.253Z,22.51
2016-05-27T09:48:01.256Z,22.52
2016-05-27T09:49:01.259Z,22.47
2016-05-27T09:50:01.323Z,22.52
2016-05-27T09:51:01.123Z,22.52
2016-05-27T09:52:01.282Z,22.46
2016-05-27T09:53:01.300Z,22.58
2016-05-27T09:54:01.303Z,22.49
2016-05-27T09:55:01.306Z,22.49
2016-05-27T09:56:01.309Z,22.49
2016-05-27T09:57:01.311Z,22.6
2016-05-27T09:58:01.314Z,22.55
2016-05-27T09:59:01.332Z,22.52
2016-05-27T10:00:01.320Z,22.49
2016-05-27T10:01:01.322Z,22.61
2016-05-27T10:02:01.184Z,22.58
2016-05-27T10:03:01.186Z,22.52
2016-05-27T10:04:01.361Z,22.57
2016-05-27T10:05:01.582Z,22.55
2016-05-27T10:06:01.352Z,22.57
2016-05-27T10:07:01.370Z,22.61
2016-05-27T10:08:01.372Z,22.58
2016-05-27T10:09:01.374Z,22.61
2016-05-27T10:10:01.393Z,22.54
2016-05-27T10:11:01.223Z,22.6
2016-05-27T10:12:01.382Z,22.58
2016-05-27T10:13:01.402Z,22.58
2016-05-27T10:14:01.248Z,22.6
2016-05-27T10:15:01.407Z,22.62
2016-05-27T10:16:01.268Z,22.67
2016-05-27T10:17:01.256Z,22.57
2016-05-27T10:18:01.415Z,22.64
2016-05-27T10:19:01.433Z,22.62
2016-05-27T10:20:02.279Z,22.61
2016-05-27T10:21:01.298Z,22.65
2016-05-27T10:22:01.440Z,22.6
2016-05-27T10:23:01.303Z,22.62
2016-05-27T10:24:01.462Z,22.6
2016-05-27T10:25:01.465Z,22.6
2016-05-27T10:26:01.311Z,22.62
2016-05-27T10:27:01.470Z,22.6
2016-05-27T10:28:01.629Z,22.54
2016-05-27T10:29:01.491Z,22.54
2016-05-27T10:30:01.337Z,22.58
2016-05-27T10:31:01.497Z,22.6
2016-05-27T10:32:01.358Z,22.57
2016-05-27T10:33:01.517Z,22.72
2016-05-27T10:34:01.677Z,22.67
2016-05-27T10:35:02.600Z,22.68
2016-05-27T10:36:01.369Z,22.68
2016-05-27T10:37:01.372Z,22.68
2016-05-27T10:38:01.390Z,22.7
2016-05-27T10:39:01.550Z,22.68
2016-05-27T10:40:01.568Z,22.7
2016-05-27T10:41:01.554Z,22.68
2016-05-27T10:42:01.558Z,22.7
2016-05-27T10:43:08.341Z,22.76
2016-05-27T10:44:01.579Z,22.72
2016-05-27T10:45:01.425Z,22.68
2016-05-27T10:46:01.584Z,22.68
2016-05-27T10:47:01.618Z,22.75
2016-05-27T10:48:05.760Z,22.73
2016-05-27T10:49:01.920Z,22.73
2016-05-27T10:50:01.609Z,22.67
2016-05-27T10:51:01.612Z,22.68
2016-05-27T10:52:01.460Z,22.7
2016-05-27T10:53:01.634Z,22.73
2016-05-27T10:54:01.636Z,22.72
2016-05-27T10:55:01.483Z,22.75
2016-05-27T10:56:01.642Z,22.75
2016-05-27T10:57:01.529Z,22.7
2016-05-27T10:58:01.699Z,22.73
2016-05-27T10:59:01.727Z,22.68
2016-05-27T11:00:01.770Z,22.76
2016-05-27T11:01:01.815Z,22.7
2016-05-27T11:02:01.827Z,22.7
2016-05-27T11:03:01.839Z,22.76
2016-05-27T11:04:01.695Z,22.65
2016-05-27T11:05:02.315Z,22.65
2016-05-27T11:06:03.281Z,22.72
2016-05-27T11:07:01.881Z,22.76
2016-05-27T11:08:01.887Z,22.8
2016-05-27T11:09:01.909Z,22.65
2016-05-27T11:10:01.758Z,22.65
2016-05-27T11:11:02.984Z,22.77
2016-05-27T11:12:01.925Z,22.73
2016-05-27T11:13:01.944Z,22.75
2016-05-27T11:14:01.932Z,22.67
2016-05-27T11:15:01.952Z,22.7
2016-05-27T11:16:04.097Z,22.65
2016-05-27T11:17:01.975Z,22.7
2016-05-27T11:18:01.806Z,22.76
2016-05-27T11:19:01.964Z,22.67
2016-05-27T11:20:01.984Z,22.75
2016-05-27T11:21:06.659Z,22.7
2016-05-27T11:22:02.021Z,22.75
2016-05-27T11:23:01.993Z,22.76
2016-05-27T11:24:02.012Z,22.79
2016-05-27T11:25:02.015Z,22.75
2016-05-27T11:26:03.534Z,22.76
2016-05-27T11:27:02.036Z,22.79
2016-05-27T11:28:01.867Z,22.7
2016-05-27T11:29:02.041Z,22.75
2016-05-27T11:30:02.044Z,22.76
2016-05-27T11:31:03.906Z,22.76
2016-05-27T11:32:02.049Z,22.68
2016-05-27T11:33:02.052Z,22.73
2016-05-27T11:34:01.898Z,22.65
2016-05-27T11:35:02.261Z,22.68
2016-05-27T11:36:03.201Z,22.73
2016-05-27T11:37:02.093Z,22.67
2016-05-27T11:38:02.097Z,22.72
2016-05-27T11:39:02.084Z,22.67
2016-05-27T11:40:02.102Z,22.65
2016-05-27T11:41:04.668Z,22.67
2016-05-27T11:42:02.107Z,22.65
2016-05-27T11:43:02.126Z,22.72
2016-05-27T11:44:02.129Z,22.76
2016-05-27T11:45:02.131Z,22.73
2016-05-27T11:46:04.478Z,22.73
2016-05-27T11:47:02.137Z,22.73
2016-05-27T11:48:01.983Z,22.72
2016-05-27T11:49:02.689Z,22.67
2016-05-27T11:50:02.176Z,22.67
2016-05-27T11:51:05.335Z,22.73
2016-05-27T11:52:02.026Z,22.68
2016-05-27T11:53:02.012Z,22.72
2016-05-27T11:54:02.030Z,22.68
2016-05-27T11:55:02.189Z,22.7
2016-05-27T11:56:03.864Z,22.65
2016-05-27T11:57:02.038Z,22.67
2016-05-27T11:58:02.197Z,22.68
2016-05-27T11:59:02.044Z,22.7
2016-05-27T12:00:02.077Z,22.64
2016-05-27T12:01:03.956Z,22.73
2016-05-27T12:02:02.224Z,22.7
2016-05-27T12:03:02.243Z,22.7
2016-05-27T12:04:02.229Z,22.75
2016-05-27T12:05:02.654Z,22.64
2016-05-27T12:06:03.813Z,22.73
2016-05-27T12:07:02.254Z,22.67
2016-05-27T12:08:02.256Z,22.7
2016-05-27T12:09:02.259Z,22.68
2016-05-27T12:10:02.261Z,22.68
2016-05-27T12:11:05.280Z,22.72
2016-05-27T12:12:02.282Z,22.7
2016-05-27T12:13:02.301Z,22.75
2016-05-27T12:14:02.287Z,22.76
2016-05-27T12:15:02.134Z,22.76
2016-05-27T12:16:02.293Z,22.77
2016-05-27T12:17:02.311Z,22.8
2016-05-27T12:18:02.329Z,22.77
2016-05-27T12:19:02.394Z,22.82
2016-05-27T12:20:02.429Z,22.75
2016-05-27T12:21:02.041Z,22.8
2016-05-27T12:22:02.339Z,22.73
2016-05-27T12:23:02.218Z,22.77
2016-05-27T12:24:02.361Z,22.77
2016-05-27T12:25:02.364Z,22.8
2016-05-27T12:26:02.367Z,22.76
2016-05-27T12:27:02.369Z,22.82
2016-05-27T12:28:02.372Z,22.77
2016-05-27T12:29:02.374Z,22.83
2016-05-27T12:30:02.377Z,22.8
2016-05-27T12:31:02.396Z,22.8
2016-05-27T12:32:02.398Z,22.77
2016-05-27T12:33:02.401Z,22.77
2016-05-27T12:34:02.747Z,22.83
2016-05-27T12:35:03.219Z,22.76
2016-05-27T12:36:02.113Z,22.73
2016-05-27T12:37:02.427Z,22.76
2016-05-27T12:38:02.430Z,22.79
2016-05-27T12:39:02.433Z,22.77
2016-05-27T12:40:02.295Z,22.82
2016-05-27T12:41:02.454Z,22.83
2016-05-27T12:42:02.301Z,22.79
2016-05-27T12:43:02.459Z,22.77
2016-05-27T12:44:07.415Z,22.76
2016-05-27T12:45:02.308Z,22.8
2016-05-27T12:46:02.483Z,22.75
2016-05-27T12:47:02.329Z,22.77
2016-05-27T12:48:02.489Z,22.82
2016-05-27T12:49:04.507Z,22.79
2016-05-27T12:50:03.650Z,22.76
2016-05-27T12:51:02.543Z,22.77
2016-05-27T12:52:02.375Z,22.82
2016-05-27T12:53:02.767Z,22.83
2016-05-27T12:54:02.583Z,22.85
2016-05-27T12:55:02.366Z,22.83
2016-05-27T12:56:02.541Z,22.83
2016-05-27T12:57:02.528Z,22.88
2016-05-27T12:58:02.547Z,22.83